sensor_id;sensor_type;location;lat;lon;timestamp;P1;durP1;ratioP1;P2;durP2;ratioP2
2107;SDS011;1060;52.492;13.388;2022-10-22T00:00:15;34.70;;;31.13;;
2107;SDS011;1060;52.492;13.388;2022-10-22T00:02:41;28.03;;;25.50;;
2107;SDS011;1060;52.492;13.388;2022-10-22T00:05:08;47.90;;;42.90;;
2107;SDS011;1060;52.492;13.388;2022-10-22T00:07:34;48.10;;;43.13;;
2107;SDS011;1060;52.492;13.388;2022-10-22T00:10:02;48.67;;;43.67;;
2107;SDS011;1060;52.492;13.388;2022-10-22T00:12:29;34.63;;;31.20;;
2107;SDS011;1060;52.492;13.388;2022-10-22T00:14:55;32.20;;;29.03;;
2107;SDS011;1060;52.492;13.388;2022-10-22T00:17:21;33.10;;;30.10;;
2107;SDS011;1060;52.492;13.388;2022-10-22T00:19:47;37.83;;;34.10;;
2107;SDS011;1060;52.492;13.388;2022-10-22T00:22:14;37.30;;;33.60;;
2107;SDS011;1060;52.492;13.388;2022-10-22T00:24:40;28.67;;;25.73;;
2107;SDS011;1060;52.492;13.388;2022-10-22T00:27:07;41.63;;;37.63;;
2107;SDS011;1060;52.492;13.388;2022-10-22T00:29:34;25.70;;;23.30;;
2107;SDS011;1060;52.492;13.388;2022-10-22T00:32:00;52.37;;;46.67;;
2107;SDS011;1060;52.492;13.388;2022-10-22T00:34:26;31.73;;;28.47;;
2107;SDS011;1060;52.492;13.388;2022-10-22T00:36:53;75.00;;;55.40;;
2107;SDS011;1060;52.492;13.388;2022-10-22T00:39:21;37.43;;;33.30;;
2107;SDS011;1060;52.492;13.388;2022-10-22T00:41:57;61.90;;;55.30;;
2107;SDS011;1060;52.492;13.388;2022-10-22T00:47:08;30.00;;;27.00;;
2107;SDS011;1060;52.492;13.388;2022-10-22T00:49:37;29.83;;;26.87;;
2107;SDS011;1060;52.492;13.388;2022-10-22T00:52:03;52.83;;;47.13;;
2107;SDS011;1060;52.492;13.388;2022-10-22T00:54:30;28.30;;;25.63;;
2107;SDS011;1060;52.492;13.388;2022-10-22T00:56:56;41.00;;;37.10;;
2107;SDS011;1060;52.492;13.388;2022-10-22T00:59:22;29.67;;;26.63;;
2107;SDS011;1060;52.492;13.388;2022-10-22T01:01:48;27.70;;;24.80;;
2107;SDS011;1060;52.492;13.388;2022-10-22T01:04:16;30.87;;;27.40;;
2107;SDS011;1060;52.492;13.388;2022-10-22T01:06:43;23.77;;;21.13;;
2107;SDS011;1060;52.492;13.388;2022-10-22T01:16:58;23.43;;;20.93;;
2107;SDS011;1060;52.492;13.388;2022-10-22T01:19:47;25.30;;;22.70;;
2107;SDS011;1060;52.492;13.388;2022-10-22T01:27:26;22.00;;;19.77;;
2107;SDS011;1060;52.492;13.388;2022-10-22T01:30:03;22.87;;;20.50;;
2107;SDS011;1060;52.492;13.388;2022-10-22T01:32:32;24.10;;;20.70;;
2107;SDS011;1060;52.492;13.388;2022-10-22T01:35:01;24.60;;;21.97;;
2107;SDS011;1060;52.492;13.388;2022-10-22T01:37:29;21.33;;;19.33;;
2107;SDS011;1060;52.492;13.388;2022-10-22T01:39:56;24.70;;;21.80;;
2107;SDS011;1060;52.492;13.388;2022-10-22T01:42:24;23.20;;;20.77;;
2107;SDS011;1060;52.492;13.388;2022-10-22T01:44:50;21.67;;;19.50;;
2107;SDS011;1060;52.492;13.388;2022-10-22T01:47:38;23.77;;;19.67;;
2107;SDS011;1060;52.492;13.388;2022-10-22T01:53:06;23.50;;;19.80;;
2107;SDS011;1060;52.492;13.388;2022-10-22T01:58:08;24.03;;;21.63;;
2107;SDS011;1060;52.492;13.388;2022-10-22T02:00:37;23.33;;;21.13;;
2107;SDS011;1060;52.492;13.388;2022-10-22T02:03:07;23.10;;;20.87;;
2107;SDS011;1060;52.492;13.388;2022-10-22T02:05:54;23.30;;;19.90;;
2107;SDS011;1060;52.492;13.388;2022-10-22T02:08:26;22.10;;;19.47;;
2107;SDS011;1060;52.492;13.388;2022-10-22T02:10:54;26.17;;;23.63;;
2107;SDS011;1060;52.492;13.388;2022-10-22T02:13:25;23.43;;;20.93;;
2107;SDS011;1060;52.492;13.388;2022-10-22T02:15:52;22.07;;;19.67;;
2107;SDS011;1060;52.492;13.388;2022-10-22T02:18:19;30.10;;;27.00;;
2107;SDS011;1060;52.492;13.388;2022-10-22T02:20:46;24.27;;;21.60;;
2107;SDS011;1060;52.492;13.388;2022-10-22T02:23:13;23.10;;;20.80;;
2107;SDS011;1060;52.492;13.388;2022-10-22T02:25:39;22.57;;;20.23;;
2107;SDS011;1060;52.492;13.388;2022-10-22T02:28:10;26.43;;;22.03;;
2107;SDS011;1060;52.492;13.388;2022-10-22T02:30:38;21.27;;;19.17;;
2107;SDS011;1060;52.492;13.388;2022-10-22T02:33:16;22.53;;;19.00;;
2107;SDS011;1060;52.492;13.388;2022-10-22T02:35:44;25.53;;;21.70;;
2107;SDS011;1060;52.492;13.388;2022-10-22T02:38:10;25.80;;;19.67;;
2107;SDS011;1060;52.492;13.388;2022-10-22T02:40:37;23.33;;;19.70;;
2107;SDS011;1060;52.492;13.388;2022-10-22T02:43:04;22.57;;;20.27;;
2107;SDS011;1060;52.492;13.388;2022-10-22T02:45:30;22.97;;;20.03;;
2107;SDS011;1060;52.492;13.388;2022-10-22T02:47:56;25.87;;;23.27;;
2107;SDS011;1060;52.492;13.388;2022-10-22T02:50:22;25.07;;;21.37;;
2107;SDS011;1060;52.492;13.388;2022-10-22T02:52:48;23.37;;;20.67;;
2107;SDS011;1060;52.492;13.388;2022-10-22T02:55:14;29.03;;;21.93;;
2107;SDS011;1060;52.492;13.388;2022-10-22T02:57:40;23.97;;;21.37;;
2107;SDS011;1060;52.492;13.388;2022-10-22T03:00:07;24.03;;;21.60;;
2107;SDS011;1060;52.492;13.388;2022-10-22T03:02:33;22.17;;;19.33;;
2107;SDS011;1060;52.492;13.388;2022-10-22T03:04:59;22.30;;;19.30;;
2107;SDS011;1060;52.492;13.388;2022-10-22T03:07:25;23.17;;;20.80;;
2107;SDS011;1060;52.492;13.388;2022-10-22T03:09:51;24.07;;;20.50;;
2107;SDS011;1060;52.492;13.388;2022-10-22T03:12:17;23.07;;;19.97;;
2107;SDS011;1060;52.492;13.388;2022-10-22T03:14:46;23.17;;;20.63;;
2107;SDS011;1060;52.492;13.388;2022-10-22T03:17:15;25.80;;;19.47;;
2107;SDS011;1060;52.492;13.388;2022-10-22T03:19:41;22.97;;;19.17;;
2107;SDS011;1060;52.492;13.388;2022-10-22T03:22:19;24.10;;;21.47;;
2107;SDS011;1060;52.492;13.388;2022-10-22T03:24:46;25.70;;;21.17;;
2107;SDS011;1060;52.492;13.388;2022-10-22T03:27:14;23.50;;;20.87;;
2107;SDS011;1060;52.492;13.388;2022-10-22T03:29:41;20.10;;;18.10;;
2107;SDS011;1060;52.492;13.388;2022-10-22T03:32:07;25.33;;;21.33;;
2107;SDS011;1060;52.492;13.388;2022-10-22T03:34:33;25.10;;;22.60;;
2107;SDS011;1060;52.492;13.388;2022-10-22T03:37:00;21.03;;;18.73;;
2107;SDS011;1060;52.492;13.388;2022-10-22T03:39:27;25.03;;;22.57;;
2107;SDS011;1060;52.492;13.388;2022-10-22T03:41:54;22.50;;;20.17;;
2107;SDS011;1060;52.492;13.388;2022-10-22T03:44:20;23.70;;;21.37;;
2107;SDS011;1060;52.492;13.388;2022-10-22T03:46:47;22.50;;;20.13;;
2107;SDS011;1060;52.492;13.388;2022-10-22T03:49:13;22.50;;;19.47;;
2107;SDS011;1060;52.492;13.388;2022-10-22T03:51:39;23.13;;;20.80;;
2107;SDS011;1060;52.492;13.388;2022-10-22T03:54:05;25.73;;;23.17;;
2107;SDS011;1060;52.492;13.388;2022-10-22T03:56:31;22.43;;;19.90;;
2107;SDS011;1060;52.492;13.388;2022-10-22T03:58:58;22.20;;;19.70;;
2107;SDS011;1060;52.492;13.388;2022-10-22T04:01:25;28.80;;;19.73;;
2107;SDS011;1060;52.492;13.388;2022-10-22T04:03:51;21.40;;;19.20;;
2107;SDS011;1060;52.492;13.388;2022-10-22T04:06:17;24.10;;;21.70;;
2107;SDS011;1060;52.492;13.388;2022-10-22T04:08:44;21.03;;;18.80;;
2107;SDS011;1060;52.492;13.388;2022-10-22T04:11:11;24.07;;;21.37;;
2107;SDS011;1060;52.492;13.388;2022-10-22T04:13:37;20.67;;;18.77;;
2107;SDS011;1060;52.492;13.388;2022-10-22T04:16:07;20.00;;;17.20;;
2107;SDS011;1060;52.492;13.388;2022-10-22T04:18:33;25.00;;;21.10;;
2107;SDS011;1060;52.492;13.388;2022-10-22T04:21:00;23.27;;;17.40;;
2107;SDS011;1060;52.492;13.388;2022-10-22T04:23:26;23.00;;;20.20;;
2107;SDS011;1060;52.492;13.388;2022-10-22T04:25:58;21.47;;;19.37;;
2107;SDS011;1060;52.492;13.388;2022-10-22T04:28:25;20.53;;;18.30;;
2107;SDS011;1060;52.492;13.388;2022-10-22T04:30:51;21.00;;;19.00;;
2107;SDS011;1060;52.492;13.388;2022-10-22T04:33:17;20.77;;;18.73;;
2107;SDS011;1060;52.492;13.388;2022-10-22T04:35:43;22.83;;;19.93;;
2107;SDS011;1060;52.492;13.388;2022-10-22T04:38:09;22.97;;;20.67;;
2107;SDS011;1060;52.492;13.388;2022-10-22T04:40:35;23.83;;;20.80;;
2107;SDS011;1060;52.492;13.388;2022-10-22T04:43:01;21.67;;;19.47;;
2107;SDS011;1060;52.492;13.388;2022-10-22T04:45:27;23.07;;;20.50;;
2107;SDS011;1060;52.492;13.388;2022-10-22T04:47:53;27.13;;;24.33;;
2107;SDS011;1060;52.492;13.388;2022-10-22T04:50:19;23.83;;;21.33;;
2107;SDS011;1060;52.492;13.388;2022-10-22T04:52:45;32.03;;;28.87;;
2107;SDS011;1060;52.492;13.388;2022-10-22T04:55:12;20.93;;;18.83;;
2107;SDS011;1060;52.492;13.388;2022-10-22T04:57:38;26.77;;;21.23;;
2107;SDS011;1060;52.492;13.388;2022-10-22T05:00:04;23.57;;;21.17;;
2107;SDS011;1060;52.492;13.388;2022-10-22T05:02:30;21.17;;;19.07;;
2107;SDS011;1060;52.492;13.388;2022-10-22T05:04:56;23.23;;;20.83;;
2107;SDS011;1060;52.492;13.388;2022-10-22T05:07:22;21.83;;;19.60;;
2107;SDS011;1060;52.492;13.388;2022-10-22T05:09:48;22.53;;;20.10;;
2107;SDS011;1060;52.492;13.388;2022-10-22T05:12:14;22.60;;;20.37;;
2107;SDS011;1060;52.492;13.388;2022-10-22T05:14:40;23.43;;;19.07;;
2107;SDS011;1060;52.492;13.388;2022-10-22T05:17:07;23.60;;;20.03;;
2107;SDS011;1060;52.492;13.388;2022-10-22T05:19:33;21.83;;;17.90;;
2107;SDS011;1060;52.492;13.388;2022-10-22T05:22:00;23.57;;;21.17;;
2107;SDS011;1060;52.492;13.388;2022-10-22T05:24:26;22.03;;;19.83;;
2107;SDS011;1060;52.492;13.388;2022-10-22T05:26:53;20.13;;;18.13;;
2107;SDS011;1060;52.492;13.388;2022-10-22T05:29:20;28.97;;;24.03;;
2107;SDS011;1060;52.492;13.388;2022-10-22T05:31:49;24.87;;;22.27;;
2107;SDS011;1060;52.492;13.388;2022-10-22T05:34:18;24.70;;;22.13;;
2107;SDS011;1060;52.492;13.388;2022-10-22T05:36:44;24.50;;;19.17;;
2107;SDS011;1060;52.492;13.388;2022-10-22T05:39:10;22.17;;;19.27;;
2107;SDS011;1060;52.492;13.388;2022-10-22T05:41:36;21.87;;;19.67;;
2107;SDS011;1060;52.492;13.388;2022-10-22T05:44:03;24.60;;;21.97;;
2107;SDS011;1060;52.492;13.388;2022-10-22T05:46:32;25.57;;;23.07;;
2107;SDS011;1060;52.492;13.388;2022-10-22T05:49:00;24.00;;;21.57;;
2107;SDS011;1060;52.492;13.388;2022-10-22T05:51:27;22.17;;;19.80;;
2107;SDS011;1060;52.492;13.388;2022-10-22T05:53:54;21.77;;;18.97;;
2107;SDS011;1060;52.492;13.388;2022-10-22T05:56:21;27.33;;;21.57;;
2107;SDS011;1060;52.492;13.388;2022-10-22T05:58:47;31.00;;;25.00;;
2107;SDS011;1060;52.492;13.388;2022-10-22T06:03:40;30.13;;;20.37;;
2107;SDS011;1060;52.492;13.388;2022-10-22T06:06:17;24.47;;;21.97;;
2107;SDS011;1060;52.492;13.388;2022-10-22T06:08:45;22.53;;;19.80;;
2107;SDS011;1060;52.492;13.388;2022-10-22T06:11:11;22.80;;;20.50;;
2107;SDS011;1060;52.492;13.388;2022-10-22T06:13:37;29.80;;;22.50;;
2107;SDS011;1060;52.492;13.388;2022-10-22T06:16:03;22.43;;;20.37;;
2107;SDS011;1060;52.492;13.388;2022-10-22T06:18:29;33.03;;;29.40;;
2107;SDS011;1060;52.492;13.388;2022-10-22T06:20:55;24.13;;;21.43;;
2107;SDS011;1060;52.492;13.388;2022-10-22T06:23:28;24.50;;;21.60;;
2107;SDS011;1060;52.492;13.388;2022-10-22T06:25:54;26.33;;;23.60;;
2107;SDS011;1060;52.492;13.388;2022-10-22T06:28:21;28.50;;;25.40;;
2107;SDS011;1060;52.492;13.388;2022-10-22T06:30:47;30.80;;;24.97;;
2107;SDS011;1060;52.492;13.388;2022-10-22T06:33:13;25.37;;;22.87;;
2107;SDS011;1060;52.492;13.388;2022-10-22T06:35:39;26.60;;;23.80;;
2107;SDS011;1060;52.492;13.388;2022-10-22T06:38:05;29.20;;;26.23;;
2107;SDS011;1060;52.492;13.388;2022-10-22T06:40:31;24.53;;;21.60;;
2107;SDS011;1060;52.492;13.388;2022-10-22T06:43:01;27.73;;;20.30;;
2107;SDS011;1060;52.492;13.388;2022-10-22T06:45:27;20.60;;;18.50;;
2107;SDS011;1060;52.492;13.388;2022-10-22T06:47:53;22.20;;;19.87;;
2107;SDS011;1060;52.492;13.388;2022-10-22T06:50:20;23.20;;;18.73;;
2107;SDS011;1060;52.492;13.388;2022-10-22T06:52:46;21.67;;;19.67;;
2107;SDS011;1060;52.492;13.388;2022-10-22T06:55:12;23.77;;;19.43;;
2107;SDS011;1060;52.492;13.388;2022-10-22T06:57:38;20.93;;;19.03;;
2107;SDS011;1060;52.492;13.388;2022-10-22T07:00:05;27.40;;;19.27;;
2107;SDS011;1060;52.492;13.388;2022-10-22T07:02:31;20.73;;;18.37;;
2107;SDS011;1060;52.492;13.388;2022-10-22T07:04:57;20.07;;;18.10;;
2107;SDS011;1060;52.492;13.388;2022-10-22T07:07:23;19.60;;;17.60;;
2107;SDS011;1060;52.492;13.388;2022-10-22T07:09:49;21.40;;;19.27;;
2107;SDS011;1060;52.492;13.388;2022-10-22T07:12:15;20.53;;;18.37;;
2107;SDS011;1060;52.492;13.388;2022-10-22T07:14:41;24.40;;;21.80;;
2107;SDS011;1060;52.492;13.388;2022-10-22T07:17:08;20.10;;;18.00;;
2107;SDS011;1060;52.492;13.388;2022-10-22T07:19:34;20.47;;;18.37;;
2107;SDS011;1060;52.492;13.388;2022-10-22T07:22:00;19.70;;;17.50;;
2107;SDS011;1060;52.492;13.388;2022-10-22T07:24:26;18.83;;;17.10;;
2107;SDS011;1060;52.492;13.388;2022-10-22T07:26:52;16.70;;;15.10;;
2107;SDS011;1060;52.492;13.388;2022-10-22T07:29:18;17.03;;;15.20;;
2107;SDS011;1060;52.492;13.388;2022-10-22T07:31:44;17.83;;;16.13;;
2107;SDS011;1060;52.492;13.388;2022-10-22T07:34:11;32.97;;;17.77;;
2107;SDS011;1060;52.492;13.388;2022-10-22T07:36:37;21.10;;;17.90;;
2107;SDS011;1060;52.492;13.388;2022-10-22T07:39:03;16.73;;;15.13;;
2107;SDS011;1060;52.492;13.388;2022-10-22T07:41:29;17.70;;;15.03;;
2107;SDS011;1060;52.492;13.388;2022-10-22T07:43:56;16.90;;;15.20;;
2107;SDS011;1060;52.492;13.388;2022-10-22T07:46:22;19.03;;;17.43;;
2107;SDS011;1060;52.492;13.388;2022-10-22T07:48:48;15.73;;;14.30;;
2107;SDS011;1060;52.492;13.388;2022-10-22T07:51:15;15.83;;;14.13;;
2107;SDS011;1060;52.492;13.388;2022-10-22T07:53:41;17.70;;;13.97;;
2107;SDS011;1060;52.492;13.388;2022-10-22T07:56:08;17.80;;;15.90;;
2107;SDS011;1060;52.492;13.388;2022-10-22T07:58:34;19.93;;;18.03;;
2107;SDS011;1060;52.492;13.388;2022-10-22T08:01:01;17.13;;;15.43;;
2107;SDS011;1060;52.492;13.388;2022-10-22T08:03:30;26.07;;;23.43;;
2107;SDS011;1060;52.492;13.388;2022-10-22T08:05:56;14.97;;;13.47;;
2107;SDS011;1060;52.492;13.388;2022-10-22T08:08:23;18.67;;;16.80;;
2107;SDS011;1060;52.492;13.388;2022-10-22T08:10:50;17.50;;;15.80;;
2107;SDS011;1060;52.492;13.388;2022-10-22T08:13:17;17.43;;;15.77;;
2107;SDS011;1060;52.492;13.388;2022-10-22T08:15:43;17.77;;;16.03;;
2107;SDS011;1060;52.492;13.388;2022-10-22T08:18:11;15.90;;;14.40;;
2107;SDS011;1060;52.492;13.388;2022-10-22T08:20:37;17.30;;;15.53;;
2107;SDS011;1060;52.492;13.388;2022-10-22T08:23:03;16.70;;;15.03;;
2107;SDS011;1060;52.492;13.388;2022-10-22T08:25:30;15.97;;;14.60;;
2107;SDS011;1060;52.492;13.388;2022-10-22T08:27:56;18.23;;;16.63;;
2107;SDS011;1060;52.492;13.388;2022-10-22T08:30:22;15.30;;;13.70;;
2107;SDS011;1060;52.492;13.388;2022-10-22T08:32:51;15.83;;;14.30;;
2107;SDS011;1060;52.492;13.388;2022-10-22T08:35:17;15.63;;;14.33;;
2107;SDS011;1060;52.492;13.388;2022-10-22T08:37:44;15.03;;;13.47;;
2107;SDS011;1060;52.492;13.388;2022-10-22T08:40:12;18.70;;;12.80;;
2107;SDS011;1060;52.492;13.388;2022-10-22T08:45:33;14.30;;;13.10;;
2107;SDS011;1060;52.492;13.388;2022-10-22T08:50:33;16.30;;;14.73;;
2107;SDS011;1060;52.492;13.388;2022-10-22T08:53:01;27.20;;;16.27;;
2107;SDS011;1060;52.492;13.388;2022-10-22T08:55:28;14.83;;;13.53;;
2107;SDS011;1060;52.492;13.388;2022-10-22T08:58:16;16.10;;;14.80;;
2107;SDS011;1060;52.492;13.388;2022-10-22T09:00:54;13.13;;;11.83;;
2107;SDS011;1060;52.492;13.388;2022-10-22T09:08:48;13.03;;;11.73;;
2107;SDS011;1060;52.492;13.388;2022-10-22T09:11:30;12.10;;;11.00;;
2107;SDS011;1060;52.492;13.388;2022-10-22T09:13:57;12.47;;;11.10;;
2107;SDS011;1060;52.492;13.388;2022-10-22T09:18:52;14.47;;;13.10;;
2107;SDS011;1060;52.492;13.388;2022-10-22T09:21:25;12.80;;;11.50;;
2107;SDS011;1060;52.492;13.388;2022-10-22T09:26:23;14.33;;;13.03;;
2107;SDS011;1060;52.492;13.388;2022-10-22T09:28:53;13.57;;;12.10;;
2107;SDS011;1060;52.492;13.388;2022-10-22T09:31:21;12.40;;;11.30;;
2107;SDS011;1060;52.492;13.388;2022-10-22T09:33:51;13.77;;;12.57;;
2107;SDS011;1060;52.492;13.388;2022-10-22T09:36:19;16.10;;;14.50;;
2107;SDS011;1060;52.492;13.388;2022-10-22T09:38:49;16.27;;;14.97;;
2107;SDS011;1060;52.492;13.388;2022-10-22T09:41:16;14.60;;;13.40;;
2107;SDS011;1060;52.492;13.388;2022-10-22T09:43:46;12.00;;;10.90;;
2107;SDS011;1060;52.492;13.388;2022-10-22T09:46:20;11.33;;;10.33;;
2107;SDS011;1060;52.492;13.388;2022-10-22T09:48:47;12.53;;;11.37;;
2107;SDS011;1060;52.492;13.388;2022-10-22T09:51:21;11.87;;;10.87;;
2107;SDS011;1060;52.492;13.388;2022-10-22T09:53:57;16.30;;;14.87;;
2107;SDS011;1060;52.492;13.388;2022-10-22T09:56:25;13.53;;;12.33;;
2107;SDS011;1060;52.492;13.388;2022-10-22T09:58:54;15.93;;;14.37;;
2107;SDS011;1060;52.492;13.388;2022-10-22T10:01:28;14.57;;;13.17;;
2107;SDS011;1060;52.492;13.388;2022-10-22T10:04:01;15.90;;;14.50;;
2107;SDS011;1060;52.492;13.388;2022-10-22T10:06:30;13.47;;;12.17;;
2107;SDS011;1060;52.492;13.388;2022-10-22T10:08:57;18.17;;;16.53;;
2107;SDS011;1060;52.492;13.388;2022-10-22T10:11:28;13.20;;;12.17;;
2107;SDS011;1060;52.492;13.388;2022-10-22T10:16:53;14.67;;;13.30;;
2107;SDS011;1060;52.492;13.388;2022-10-22T10:22:13;13.53;;;12.23;;
2107;SDS011;1060;52.492;13.388;2022-10-22T10:24:49;13.03;;;11.77;;
2107;SDS011;1060;52.492;13.388;2022-10-22T10:27:26;15.67;;;14.17;;
2107;SDS011;1060;52.492;13.388;2022-10-22T10:29:59;14.87;;;13.23;;
2107;SDS011;1060;52.492;13.388;2022-10-22T10:32:38;13.87;;;12.60;;
2107;SDS011;1060;52.492;13.388;2022-10-22T10:35:17;12.90;;;11.70;;
2107;SDS011;1060;52.492;13.388;2022-10-22T10:41:18;14.97;;;13.00;;
2107;SDS011;1060;52.492;13.388;2022-10-22T10:44:23;14.23;;;12.90;;
2107;SDS011;1060;52.492;13.388;2022-10-22T10:46:25;16.70;;;12.87;;
2107;SDS011;1060;52.492;13.388;2022-10-22T10:49:03;14.97;;;13.37;;
2107;SDS011;1060;52.492;13.388;2022-10-22T10:54:15;31.57;;;28.30;;
2107;SDS011;1060;52.492;13.388;2022-10-22T11:07:06;16.43;;;13.50;;
2107;SDS011;1060;52.492;13.388;2022-10-22T11:09:53;15.43;;;14.07;;
2107;SDS011;1060;52.492;13.388;2022-10-22T11:12:23;17.73;;;16.10;;
2107;SDS011;1060;52.492;13.388;2022-10-22T11:17:39;19.67;;;17.57;;
2107;SDS011;1060;52.492;13.388;2022-10-22T11:20:23;15.70;;;14.30;;
2107;SDS011;1060;52.492;13.388;2022-10-22T11:22:52;16.67;;;15.27;;
2107;SDS011;1060;52.492;13.388;2022-10-22T11:25:21;18.27;;;16.57;;
2107;SDS011;1060;52.492;13.388;2022-10-22T11:27:50;19.53;;;17.73;;
2107;SDS011;1060;52.492;13.388;2022-10-22T11:30:21;19.83;;;17.90;;
2107;SDS011;1060;52.492;13.388;2022-10-22T11:32:56;21.07;;;18.97;;
2107;SDS011;1060;52.492;13.388;2022-10-22T11:35:25;17.47;;;15.80;;
2107;SDS011;1060;52.492;13.388;2022-10-22T11:37:53;16.37;;;14.97;;
2107;SDS011;1060;52.492;13.388;2022-10-22T11:40:20;17.60;;;15.93;;
2107;SDS011;1060;52.492;13.388;2022-10-22T11:43:04;18.10;;;16.70;;
2107;SDS011;1060;52.492;13.388;2022-10-22T11:45:33;15.77;;;13.93;;
2107;SDS011;1060;52.492;13.388;2022-10-22T11:48:11;15.97;;;14.73;;
2107;SDS011;1060;52.492;13.388;2022-10-22T12:08:28;16.27;;;14.77;;
2107;SDS011;1060;52.492;13.388;2022-10-22T12:16:14;16.23;;;14.63;;
2107;SDS011;1060;52.492;13.388;2022-10-22T12:18:41;12.33;;;11.13;;
2107;SDS011;1060;52.492;13.388;2022-10-22T12:21:15;13.67;;;12.37;;
2107;SDS011;1060;52.492;13.388;2022-10-22T12:23:42;11.77;;;10.63;;
2107;SDS011;1060;52.492;13.388;2022-10-22T12:26:26;12.03;;;10.00;;
2107;SDS011;1060;52.492;13.388;2022-10-22T12:29:11;13.40;;;10.13;;
2107;SDS011;1060;52.492;13.388;2022-10-22T12:31:39;11.47;;;8.50;;
2107;SDS011;1060;52.492;13.388;2022-10-22T12:34:05;9.60;;;8.80;;
2107;SDS011;1060;52.492;13.388;2022-10-22T12:36:33;7.67;;;6.97;;
2107;SDS011;1060;52.492;13.388;2022-10-22T12:39:00;8.50;;;6.60;;
2107;SDS011;1060;52.492;13.388;2022-10-22T12:41:31;12.53;;;11.13;;
2107;SDS011;1060;52.492;13.388;2022-10-22T12:43:57;6.73;;;6.13;;
2107;SDS011;1060;52.492;13.388;2022-10-22T12:46:24;6.57;;;5.97;;
2107;SDS011;1060;52.492;13.388;2022-10-22T12:48:50;6.10;;;5.50;;
2107;SDS011;1060;52.492;13.388;2022-10-22T12:51:17;6.80;;;5.70;;
2107;SDS011;1060;52.492;13.388;2022-10-22T12:53:45;6.67;;;6.00;;
2107;SDS011;1060;52.492;13.388;2022-10-22T12:56:13;4.93;;;4.43;;
2107;SDS011;1060;52.492;13.388;2022-10-22T12:58:42;7.20;;;6.53;;
2107;SDS011;1060;52.492;13.388;2022-10-22T13:01:13;6.00;;;5.50;;
2107;SDS011;1060;52.492;13.388;2022-10-22T13:03:41;6.50;;;4.70;;
2107;SDS011;1060;52.492;13.388;2022-10-22T13:08:53;6.23;;;5.73;;
2107;SDS011;1060;52.492;13.388;2022-10-22T13:11:20;7.80;;;5.00;;
2107;SDS011;1060;52.492;13.388;2022-10-22T13:13:46;8.87;;;7.13;;
2107;SDS011;1060;52.492;13.388;2022-10-22T13:16:19;7.70;;;6.90;;
2107;SDS011;1060;52.492;13.388;2022-10-22T13:18:48;7.57;;;6.77;;
2107;SDS011;1060;52.492;13.388;2022-10-22T13:21:27;8.50;;;5.17;;
2107;SDS011;1060;52.492;13.388;2022-10-22T13:24:01;5.87;;;5.13;;
2107;SDS011;1060;52.492;13.388;2022-10-22T13:26:31;8.23;;;7.53;;
2107;SDS011;1060;52.492;13.388;2022-10-22T13:28:58;5.00;;;4.60;;
2107;SDS011;1060;52.492;13.388;2022-10-22T13:31:26;9.20;;;4.80;;
2107;SDS011;1060;52.492;13.388;2022-10-22T13:33:54;5.53;;;3.93;;
2107;SDS011;1060;52.492;13.388;2022-10-22T13:36:21;4.93;;;4.53;;
2107;SDS011;1060;52.492;13.388;2022-10-22T13:38:47;7.53;;;5.53;;
2107;SDS011;1060;52.492;13.388;2022-10-22T13:43:46;5.87;;;3.80;;
2107;SDS011;1060;52.492;13.388;2022-10-22T13:46:12;4.60;;;4.20;;
2107;SDS011;1060;52.492;13.388;2022-10-22T13:48:39;7.00;;;3.37;;
2107;SDS011;1060;52.492;13.388;2022-10-22T13:53:32;18.17;;;9.13;;
2107;SDS011;1060;52.492;13.388;2022-10-22T13:55:58;6.20;;;4.53;;
2107;SDS011;1060;52.492;13.388;2022-10-22T13:58:24;5.90;;;5.30;;
2107;SDS011;1060;52.492;13.388;2022-10-22T14:00:55;17.17;;;10.23;;
2107;SDS011;1060;52.492;13.388;2022-10-22T14:03:29;4.27;;;3.87;;
2107;SDS011;1060;52.492;13.388;2022-10-22T14:05:56;5.10;;;4.60;;
2107;SDS011;1060;52.492;13.388;2022-10-22T14:08:23;9.23;;;8.20;;
2107;SDS011;1060;52.492;13.388;2022-10-22T14:10:50;9.17;;;4.50;;
2107;SDS011;1060;52.492;13.388;2022-10-22T14:13:16;3.90;;;3.60;;
2107;SDS011;1060;52.492;13.388;2022-10-22T14:15:43;3.77;;;3.30;;
2107;SDS011;1060;52.492;13.388;2022-10-22T14:18:11;9.43;;;7.03;;
2107;SDS011;1060;52.492;13.388;2022-10-22T14:20:39;6.10;;;5.60;;
2107;SDS011;1060;52.492;13.388;2022-10-22T14:23:13;9.30;;;4.83;;
2107;SDS011;1060;52.492;13.388;2022-10-22T14:25:39;7.47;;;5.30;;
2107;SDS011;1060;52.492;13.388;2022-10-22T14:28:11;4.50;;;4.10;;
2107;SDS011;1060;52.492;13.388;2022-10-22T14:30:38;9.33;;;4.80;;
2107;SDS011;1060;52.492;13.388;2022-10-22T14:33:10;8.17;;;4.93;;
2107;SDS011;1060;52.492;13.388;2022-10-22T14:35:38;7.20;;;5.97;;
2107;SDS011;1060;52.492;13.388;2022-10-22T14:38:04;6.60;;;3.50;;
2107;SDS011;1060;52.492;13.388;2022-10-22T14:40:30;6.33;;;5.73;;
2107;SDS011;1060;52.492;13.388;2022-10-22T14:42:56;5.17;;;4.67;;
2107;SDS011;1060;52.492;13.388;2022-10-22T14:45:24;10.93;;;6.87;;
2107;SDS011;1060;52.492;13.388;2022-10-22T14:47:51;7.23;;;6.00;;
2107;SDS011;1060;52.492;13.388;2022-10-22T14:50:20;11.10;;;8.23;;
2107;SDS011;1060;52.492;13.388;2022-10-22T14:52:46;8.93;;;5.37;;
2107;SDS011;1060;52.492;13.388;2022-10-22T14:55:13;8.10;;;4.30;;
2107;SDS011;1060;52.492;13.388;2022-10-22T14:57:40;9.97;;;5.60;;
2107;SDS011;1060;52.492;13.388;2022-10-22T15:00:07;7.27;;;5.23;;
2107;SDS011;1060;52.492;13.388;2022-10-22T15:02:34;7.80;;;6.07;;
2107;SDS011;1060;52.492;13.388;2022-10-22T15:05:06;9.10;;;7.27;;
2107;SDS011;1060;52.492;13.388;2022-10-22T15:07:32;8.80;;;6.97;;
2107;SDS011;1060;52.492;13.388;2022-10-22T15:10:02;22.93;;;18.40;;
2107;SDS011;1060;52.492;13.388;2022-10-22T15:12:28;13.97;;;11.77;;
2107;SDS011;1060;52.492;13.388;2022-10-22T15:14:54;7.30;;;6.60;;
2107;SDS011;1060;52.492;13.388;2022-10-22T15:17:20;8.73;;;7.80;;
2107;SDS011;1060;52.492;13.388;2022-10-22T15:19:46;12.90;;;9.50;;
2107;SDS011;1060;52.492;13.388;2022-10-22T15:22:12;12.93;;;11.60;;
2107;SDS011;1060;52.492;13.388;2022-10-22T15:24:39;8.20;;;6.60;;
2107;SDS011;1060;52.492;13.388;2022-10-22T15:27:09;11.13;;;6.97;;
2107;SDS011;1060;52.492;13.388;2022-10-22T15:29:38;7.37;;;6.83;;
2107;SDS011;1060;52.492;13.388;2022-10-22T15:32:04;19.47;;;13.97;;
2107;SDS011;1060;52.492;13.388;2022-10-22T15:34:31;19.97;;;16.80;;
2107;SDS011;1060;52.492;13.388;2022-10-22T15:36:58;24.73;;;22.10;;
2107;SDS011;1060;52.492;13.388;2022-10-22T15:39:25;17.33;;;15.63;;
2107;SDS011;1060;52.492;13.388;2022-10-22T15:41:51;11.27;;;8.93;;
2107;SDS011;1060;52.492;13.388;2022-10-22T15:44:19;25.97;;;21.43;;
2107;SDS011;1060;52.492;13.388;2022-10-22T15:46:45;14.97;;;9.90;;
2107;SDS011;1060;52.492;13.388;2022-10-22T15:49:12;17.50;;;14.20;;
2107;SDS011;1060;52.492;13.388;2022-10-22T15:51:38;15.80;;;13.53;;
2107;SDS011;1060;52.492;13.388;2022-10-22T15:54:04;22.80;;;13.00;;
2107;SDS011;1060;52.492;13.388;2022-10-22T15:56:31;11.00;;;9.80;;
2107;SDS011;1060;52.492;13.388;2022-10-22T15:58:58;19.13;;;10.20;;
2107;SDS011;1060;52.492;13.388;2022-10-22T16:01:26;10.93;;;9.70;;
2107;SDS011;1060;52.492;13.388;2022-10-22T16:03:52;14.10;;;9.37;;
2107;SDS011;1060;52.492;13.388;2022-10-22T16:06:38;14.90;;;10.60;;
2107;SDS011;1060;52.492;13.388;2022-10-22T16:09:06;15.50;;;12.70;;
2107;SDS011;1060;52.492;13.388;2022-10-22T16:11:39;24.40;;;18.00;;
2107;SDS011;1060;52.492;13.388;2022-10-22T16:14:06;13.30;;;11.00;;
2107;SDS011;1060;52.492;13.388;2022-10-22T16:16:33;13.40;;;12.00;;
2107;SDS011;1060;52.492;13.388;2022-10-22T16:19:00;30.33;;;26.77;;